Time;durP1;ratioP1;P1;durP2;ratioP2;P2;SDS_P1;SDS_P2;PMS_P1;PMS_P2;Temp;Humidity;BMP_temperature;BMP_pressure;BME280_temperature;BME280_humidity;BME280_pressure;Samples;Min_cycle;Max_cycle;Signal;HPM_P1;HPM_P2
2024/04/15 00:01:05;;;;;;;5.63;2.90;;;17.00;44.70;;;;;;5491663;26;20455;-73
2024/04/15 00:03:35;;;;;;;6.50;3.13;;;17.00;44.70;;;;;;5490144;26;20455;-73
2024/04/15 00:06:06;;;;;;;4.73;3.27;;;17.00;44.70;;;;;;5491488;26;20842;-73
2024/04/15 00:08:34;;;;;;;5.83;4.00;;;17.00;45.10;;;;;;5491881;26;20447;-73
2024/04/15 00:11:01;;;;;;;5.73;4.07;;;17.00;45.60;;;;;;5491485;26;20503;-73
2024/04/15 00:13:33;;;;;;;5.87;4.10;;;17.00;45.60;;;;;;5490779;26;20520;-72
2024/04/15 00:15:59;;;;;;;6.17;3.33;;;17.00;45.80;;;;;;5491065;26;20460;-72
2024/04/15 00:18:28;;;;;;;4.67;3.33;;;17.00;45.50;;;;;;5491411;26;20445;-73
2024/04/15 00:21:02;;;;;;;7.30;3.83;;;16.90;45.50;;;;;;5491066;26;20787;-73
2024/04/15 00:23:31;;;;;;;6.83;3.40;;;17.00;45.70;;;;;;5491284;26;20452;-73
2024/04/15 00:26:02;;;;;;;4.40;3.03;;;17.00;45.50;;;;;;5491259;26;20787;-73
2024/04/15 00:28:34;;;;;;;9.70;3.57;;;17.00;45.10;;;;;;5491280;26;20501;-73
2024/04/15 00:31:02;;;;;;;6.33;3.67;;;17.00;45.00;;;;;;5491783;26;20946;-73
2024/04/15 00:33:31;;;;;;;5.47;3.50;;;17.10;45.00;;;;;;5491178;26;20510;-73
2024/04/15 00:35:57;;;;;;;5.90;3.70;;;17.10;45.10;;;;;;5490778;26;20502;-73
2024/04/15 00:38:26;;;;;;;4.93;3.13;;;17.10;45.30;;;;;;5490695;26;20555;-73
2024/04/15 00:40:52;;;;;;;3.93;2.70;;;17.10;45.10;;;;;;5491145;26;20772;-72
2024/04/15 00:43:21;;;;;;;5.17;2.53;;;17.10;45.20;;;;;;5491087;26;20519;-73
2024/04/15 00:45:49;;;;;;;5.80;2.70;;;17.10;45.00;;;;;;5490972;26;20493;-73
2024/04/15 00:48:20;;;;;;;3.33;2.27;;;17.10;45.10;;;;;;5491193;26;20505;-73
2024/04/15 00:50:48;;;;;;;6.67;2.70;;;17.10;45.10;;;;;;5490950;26;20460;-73
2024/04/15 00:53:22;;;;;;;5.57;2.83;;;17.10;45.20;;;;;;5490409;26;20457;-73
2024/04/15 00:55:53;;;;;;;3.23;1.93;;;17.10;45.70;;;;;;5490901;26;20465;-73
2024/04/15 00:58:23;;;;;;;4.20;2.87;;;17.10;45.40;;;;;;5490936;26;20453;-73
2024/04/15 01:00:57;;;;;;;3.20;2.10;;;17.10;45.20;;;;;;5490833;26;20458;-73
2024/04/15 01:03:28;;;;;;;4.80;2.47;;;17.10;45.50;;;;;;5490520;26;20621;-73
2024/04/15 01:05:54;;;;;;;4.07;2.47;;;17.00;45.50;;;;;;5490524;26;20516;-73
2024/04/15 01:08:23;;;;;;;4.70;2.90;;;17.00;45.60;;;;;;5490693;26;20763;-73
2024/04/15 01:10:49;;;;;;;3.43;2.40;;;17.00;45.60;;;;;;5490481;26;20460;-73
2024/04/15 01:13:18;;;;;;;4.50;2.83;;;17.00;45.70;;;;;;5489826;26;20445;-72
2024/04/15 01:15:45;;;;;;;3.67;2.13;;;17.00;46.00;;;;;;5490594;26;20840;-73
2024/04/15 01:18:16;;;;;;;3.50;2.00;;;17.00;45.90;;;;;;5490094;26;20876;-73
2024/04/15 01:20:42;;;;;;;4.40;2.13;;;17.00;45.90;;;;;;5489672;26;20496;-73
2024/04/15 01:23:16;;;;;;;4.70;2.60;;;17.00;45.90;;;;;;5490511;26;20457;-72
2024/04/15 01:25:45;;;;;;;3.80;2.40;;;17.00;46.10;;;;;;5490509;26;20591;-73
2024/04/15 01:28:18;;;;;;;4.97;2.30;;;17.00;46.20;;;;;;5490006;26;20862;-73
2024/04/15 01:30:44;;;;;;;4.80;2.30;;;17.00;46.20;;;;;;5490213;26;20460;-73
2024/04/15 01:33:13;;;;;;;7.70;2.30;;;16.90;46.00;;;;;;5490257;26;20452;-73
2024/04/15 01:35:39;;;;;;;3.20;2.10;;;16.90;46.30;;;;;;5490674;26;20450;-72
2024/04/15 01:38:08;;;;;;;3.83;2.50;;;16.90;46.30;;;;;;5490310;26;20836;-73
2024/04/15 01:40:34;;;;;;;3.43;2.37;;;16.90;46.20;;;;;;5490457;26;20456;-73
2024/04/15 01:43:06;;;;;;;3.30;2.27;;;16.90;46.10;;;;;;5489797;26;20469;-73
2024/04/15 01:45:32;;;;;;;4.60;2.33;;;16.90;45.80;;;;;;5490128;26;20501;-73
2024/04/15 01:48:01;;;;;;;4.10;2.17;;;16.90;45.80;;;;;;5490046;26;20440;-73
2024/04/15 01:50:27;;;;;;;3.77;2.07;;;16.90;45.60;;;;;;5490659;26;20443;-73
2024/04/15 01:52:56;;;;;;;6.50;2.50;;;17.00;45.60;;;;;;5489554;26;20535;-74
2024/04/15 01:55:22;;;;;;;6.43;3.27;;;17.00;45.50;;;;;;5490055;26;20841;-73
2024/04/15 01:57:51;;;;;;;7.40;2.90;;;17.00;45.60;;;;;;5489887;26;20844;-73
2024/04/15 02:00:20;;;;;;;4.77;2.40;;;16.90;45.70;;;;;;5489962;26;20823;-72
2024/04/15 02:02:50;;;;;;;5.40;2.80;;;16.80;46.10;;;;;;5489872;26;20446;-73
2024/04/15 02:05:16;;;;;;;3.97;2.23;;;16.80;46.00;;;;;;5489701;26;20519;-73
2024/04/15 02:07:45;;;;;;;4.57;3.10;;;16.70;46.10;;;;;;5489401;26;20866;-72
2024/04/15 02:10:11;;;;;;;3.47;2.23;;;16.70;46.10;;;;;;5489779;26;20456;-73
2024/04/15 02:12:40;;;;;;;4.30;2.67;;;16.80;46.40;;;;;;5489728;26;20496;-71
2024/04/15 02:15:06;;;;;;;4.87;2.40;;;16.90;46.00;;;;;;5489539;26;20493;-70
2024/04/15 02:17:38;;;;;;;6.13;2.77;;;16.90;46.00;;;;;;5488979;26;20463;-71
2024/04/15 02:20:05;;;;;;;5.80;2.50;;;16.80;45.80;;;;;;5489489;26;20542;-71
2024/04/15 02:22:39;;;;;;;4.33;1.90;;;16.80;46.40;;;;;;5489864;26;20446;-71
2024/04/15 02:25:05;;;;;;;5.03;2.70;;;16.80;46.50;;;;;;5488920;26;20473;-71
2024/04/15 02:27:35;;;;;;;6.20;2.17;;;16.90;47.00;;;;;;5492897;26;20473;-71
2024/04/15 02:30:02;;;;;;;4.80;1.90;;;16.90;47.30;;;;;;5492770;26;20455;-70
2024/04/15 02:32:28;;;;;;;3.10;1.83;;;16.80;47.50;;;;;;5492909;26;21063;-70
2024/04/15 02:34:59;;;;;;;6.87;2.50;;;16.80;47.70;;;;;;5493293;26;20445;-70
2024/04/15 02:37:26;;;;;;;4.10;2.30;;;16.70;47.80;;;;;;5493135;26;20451;-71
2024/04/15 02:39:54;;;;;;;3.57;1.90;;;16.60;48.00;;;;;;5492839;26;20518;-71
2024/04/15 02:42:20;;;;;;;3.40;2.20;;;16.50;48.10;;;;;;5492914;26;20822;-71
2024/04/15 02:44:49;;;;;;;3.03;2.20;;;16.50;48.40;;;;;;5492597;26;20450;-71
2024/04/15 02:47:15;;;;;;;4.63;2.70;;;16.40;48.70;;;;;;5493072;26;20526;-71
2024/04/15 02:49:44;;;;;;;3.17;2.17;;;16.40;49.40;;;;;;5492732;26;20456;-70
2024/04/15 02:52:15;;;;;;;4.63;2.13;;;16.40;49.20;;;;;;5492976;26;20499;-71
2024/04/15 02:54:44;;;;;;;3.67;2.20;;;16.30;49.00;;;;;;5492051;26;20475;-70
2024/04/15 02:57:10;;;;;;;2.80;1.90;;;16.30;49.40;;;;;;5492061;26;20504;-71
2024/04/15 02:59:40;;;;;;;3.30;2.30;;;16.20;49.60;;;;;;5492355;26;20504;-71
2024/04/15 03:02:06;;;;;;;4.63;2.70;;;16.20;49.80;;;;;;5493003;26;20443;-70
2024/04/15 03:04:35;;;;;;;5.27;2.23;;;16.20;50.10;;;;;;5492428;26;20532;-70
2024/04/15 03:07:01;;;;;;;4.70;2.50;;;16.10;50.40;;;;;;5492815;26;20466;-71
2024/04/15 03:09:32;;;;;;;3.40;2.17;;;16.10;50.40;;;;;;5492061;26;20487;-71
2024/04/15 03:11:58;;;;;;;3.83;2.70;;;16.10;50.40;;;;;;5491608;26;20465;-71
2024/04/15 03:14:27;;;;;;;4.00;2.57;;;16.00;50.50;;;;;;5492417;26;20500;-71
2024/04/15 03:16:53;;;;;;;3.70;2.30;;;16.00;50.70;;;;;;5492308;26;20451;-71
2024/04/15 03:19:22;;;;;;;3.40;2.20;;;16.00;50.90;;;;;;5491844;26;20479;-70
2024/04/15 03:21:50;;;;;;;3.70;2.40;;;16.10;51.10;;;;;;5492211;26;20496;-70
2024/04/15 03:24:18;;;;;;;6.00;3.20;;;16.00;51.40;;;;;;5492193;26;20896;-70
2024/04/15 03:26:47;;;;;;;5.60;2.60;;;16.10;51.60;;;;;;5492430;26;20451;-71
2024/04/15 03:29:16;;;;;;;8.23;2.60;;;16.10;50.80;;;;;;5492093;26;20778;-71
2024/04/15 03:31:44;;;;;;;3.60;2.47;;;16.00;51.10;;;;;;5492362;26;20503;-71
2024/04/15 03:34:13;;;;;;;8.30;2.67;;;16.10;51.40;;;;;;5491746;26;20463;-70
2024/04/15 03:36:39;;;;;;;5.77;3.90;;;16.10;51.40;;;;;;5491799;26;20440;-71
2024/04/15 03:39:08;;;;;;;4.67;3.37;;;16.10;51.40;;;;;;5492296;26;20545;-70
2024/04/15 03:41:37;;;;;;;3.93;2.60;;;16.20;50.80;;;;;;5492022;26;20799;-71
2024/04/15 03:44:05;;;;;;;4.73;3.00;;;16.20;50.70;;;;;;5491638;26;20467;-71
2024/04/15 03:46:38;;;;;;;3.50;2.50;;;16.20;50.60;;;;;;5491779;26;20444;-71
2024/04/15 03:49:05;;;;;;;4.13;2.87;;;16.30;50.40;;;;;;5492271;26;20457;-71
2024/04/15 03:51:33;;;;;;;4.10;2.90;;;16.30;51.00;;;;;;5492065;26;20456;-71
2024/04/15 03:53:59;;;;;;;4.80;2.90;;;16.40;51.40;;;;;;5491667;26;20447;-71
2024/04/15 03:56:28;;;;;;;5.07;2.97;;;16.40;51.30;;;;;;5491848;26;20451;-71
2024/04/15 03:58:54;;;;;;;3.97;2.63;;;16.40;51.20;;;;;;5490949;26;20459;-71
2024/04/15 04:01:25;;;;;;;4.10;2.67;;;16.40;51.30;;;;;;5490660;26;20523;-71
2024/04/15 04:03:51;;;;;;;3.83;2.70;;;16.40;51.50;;;;;;5491680;26;20776;-70
2024/04/15 04:06:21;;;;;;;4.10;2.10;;;16.30;51.50;;;;;;5491229;26;20467;-71
2024/04/15 04:08:47;;;;;;;3.83;2.40;;;16.30;51.10;;;;;;5491532;26;20444;-71
2024/04/15 04:11:16;;;;;;;5.60;2.60;;;16.40;51.10;;;;;;5491166;26;20577;-71
2024/04/15 04:13:46;;;;;;;5.50;2.30;;;16.40;51.00;;;;;;5491083;26;20789;-73
2024/04/15 04:16:21;;;;;;;6.43;2.67;;;16.40;51.60;;;;;;5491555;26;20572;-72
2024/04/15 04:18:49;;;;;;;5.07;2.73;;;16.40;52.00;;;;;;5491536;26;21012;-73
2024/04/15 04:21:18;;;;;;;4.10;2.60;;;16.40;51.70;;;;;;5491376;26;20562;-73
2024/04/15 04:23:45;;;;;;;4.83;3.20;;;16.50;52.50;;;;;;5491402;26;20494;-72
2024/04/15 04:26:14;;;;;;;5.47;3.40;;;16.50;52.50;;;;;;5490330;26;20517;-72
2024/04/15 04:28:44;;;;;;;7.03;2.80;;;16.60;53.90;;;;;;5491317;26;20843;-72
2024/04/15 04:31:13;;;;;;;6.30;3.27;;;16.70;54.60;;;;;;5491483;26;20515;-72
2024/04/15 04:33:39;;;;;;;6.40;3.00;;;16.70;55.60;;;;;;5490546;26;20471;-72
2024/04/15 04:36:10;;;;;;;6.47;3.07;;;16.70;57.00;;;;;;5490792;26;20534;-72
2024/04/15 04:38:36;;;;;;;3.97;2.93;;;16.70;57.90;;;;;;5491101;26;20837;-72
2024/04/15 04:41:07;;;;;;;4.50;3.33;;;16.70;58.50;;;;;;5491050;26;20561;-72
2024/04/15 04:43:33;;;;;;;4.60;3.60;;;16.70;58.00;;;;;;5490934;26;20816;-72
2024/04/15 04:48:51;;;;;;;4.13;2.87;;;16.70;58.90;;;;;;5489679;26;20802;-72
2024/04/15 04:51:20;;;;;;;3.87;2.53;;;16.70;59.00;;;;;;5491120;26;20496;-72
2024/04/15 04:53:53;;;;;;;3.97;2.40;;;16.70;59.30;;;;;;5491008;26;20469;-72
2024/04/15 04:56:19;;;;;;;5.00;3.00;;;16.70;59.20;;;;;;5490700;26;20455;-72
2024/04/15 04:58:50;;;;;;;4.27;2.60;;;16.70;58.60;;;;;;5491078;26;20531;-72
2024/04/15 05:01:17;;;;;;;4.03;2.33;;;16.70;58.80;;;;;;5490744;26;20516;-73
2024/04/15 05:03:47;;;;;;;3.87;2.50;;;16.80;58.90;;;;;;5491334;26;21105;-72
2024/04/15 05:06:15;;;;;;;5.50;2.90;;;16.90;57.70;;;;;;5489920;26;20528;-72
2024/04/15 05:08:50;;;;;;;7.90;2.83;;;17.00;57.40;;;;;;5487287;26;20433;-72
2024/04/15 05:11:16;;;;;;;4.90;3.00;;;17.00;59.50;;;;;;5489619;26;20553;-73
2024/04/15 05:13:45;;;;;;;6.87;3.57;;;17.10;60.40;;;;;;5489289;26;20778;-72
2024/04/15 05:16:13;;;;;;;9.63;3.33;;;17.10;61.50;;;;;;5489272;26;20969;-72
2024/04/15 05:18:43;;;;;;;7.07;3.53;;;17.10;61.70;;;;;;5489142;26;20453;-72
2024/04/15 05:21:11;;;;;;;7.83;3.17;;;17.20;64.10;;;;;;5488899;26;20491;-72
2024/04/15 05:23:40;;;;;;;11.40;3.73;;;17.20;66.20;;;;;;5488808;26;20591;-72
2024/04/15 05:26:09;;;;;;;4.20;2.87;;;17.20;66.80;;;;;;5487302;26;20571;-72
2024/04/15 05:28:38;;;;;;;6.17;3.70;;;17.20;67.30;;;;;;5489136;26;20471;-72
2024/04/15 05:31:04;;;;;;;8.83;4.27;;;17.20;67.10;;;;;;5489214;26;20505;-72
2024/04/15 05:33:33;;;;;;;8.00;3.53;;;17.20;67.50;;;;;;5488998;26;20528;-71
2024/04/15 05:35:59;;;;;;;6.00;4.00;;;17.20;68.70;;;;;;5488935;26;20457;-72
2024/04/15 05:38:29;;;;;;;6.60;3.37;;;17.20;69.00;;;;;;5488673;26;20456;-72
2024/04/15 05:40:55;;;;;;;5.30;3.27;;;17.20;69.00;;;;;;5488926;26;20452;-72
2024/04/15 05:43:26;;;;;;;6.97;3.73;;;17.20;68.60;;;;;;5488986;26;20490;-72
2024/04/15 05:45:52;;;;;;;6.00;3.50;;;17.20;69.00;;;;;;5488793;26;20608;-72
2024/04/15 05:48:21;;;;;;;7.97;3.73;;;17.20;70.00;;;;;;5488872;26;20830;-72
2024/04/15 05:50:47;;;;;;;6.57;3.30;;;17.10;70.20;;;;;;5488903;26;20500;-72
2024/04/15 05:53:15;;;;;;;4.50;3.17;;;17.10;70.40;;;;;;5488794;26;20455;-72
2024/04/15 05:55:41;;;;;;;6.93;3.23;;;17.00;70.20;;;;;;5483884;26;20460;-72
2024/04/15 05:58:10;;;;;;;7.27;4.13;;;17.00;70.20;;;;;;5480614;26;20585;-72
2024/04/15 06:00:39;;;;;;;6.87;3.83;;;16.90;70.80;;;;;;5480674;26;20488;-72
2024/04/15 06:03:07;;;;;;;6.40;3.93;;;16.90;72.00;;;;;;5489246;26;20476;-72
2024/04/15 06:05:34;;;;;;;5.23;3.33;;;16.90;72.80;;;;;;5490819;26;21000;-72
2024/04/15 06:08:02;;;;;;;4.33;3.23;;;16.90;73.10;;;;;;5491363;26;20795;-72
2024/04/15 06:10:29;;;;;;;5.03;4.20;;;16.90;73.10;;;;;;5484157;26;20524;-72
2024/04/15 06:12:57;;;;;;;5.80;3.70;;;16.90;73.70;;;;;;5480105;26;20512;-73
2024/04/15 06:15:23;;;;;;;8.87;4.10;;;16.90;73.20;;;;;;5481373;26;20891;-72
2024/04/15 06:17:55;;;;;;;6.40;4.00;;;16.90;74.70;;;;;;5484002;26;20518;-72
2024/04/15 06:20:21;;;;;;;6.23;4.57;;;16.80;74.30;;;;;;5490088;26;20520;-72
2024/04/15 06:22:49;;;;;;;6.47;4.50;;;16.70;76.10;;;;;;5470642;26;20981;-72
2024/04/15 06:25:18;;;;;;;4.40;4.00;;;16.60;76.30;;;;;;5486756;26;21005;-72
2024/04/15 06:27:46;;;;;;;7.83;3.90;;;16.60;77.60;;;;;;5467375;26;20540;-70
2024/04/15 06:30:12;;;;;;;5.10;3.60;;;16.50;78.00;;;;;;5459296;26;20519;-70
2024/04/15 06:32:41;;;;;;;4.27;3.30;;;16.40;78.00;;;;;;5489011;26;21000;-70
2024/04/15 06:35:09;;;;;;;4.57;3.53;;;16.40;78.90;;;;;;5488608;26;21032;-70
2024/04/15 06:37:38;;;;;;;8.73;3.73;;;16.30;79.00;;;;;;5490118;26;20528;-70
2024/04/15 06:40:05;;;;;;;5.40;4.03;;;16.20;80.30;;;;;;5490736;26;20447;-70
2024/04/15 06:42:34;;;;;;;12.67;4.60;;;16.20;81.80;;;;;;5484568;26;20535;-70
2024/04/15 06:45:00;;;;;;;5.70;4.20;;;16.30;82.10;;;;;;5491605;26;20811;-70
2024/04/15 06:47:28;;;;;;;6.27;4.20;;;16.30;82.90;;;;;;5491634;26;21054;-70
2024/04/15 06:49:55;;;;;;;6.37;3.90;;;16.30;81.90;;;;;;5491231;26;20451;-70
2024/04/15 06:52:27;;;;;;;4.60;3.40;;;16.30;83.00;;;;;;5491988;26;21073;-70
2024/04/15 06:54:53;;;;;;;7.33;3.57;;;16.40;81.30;;;;;;5491999;26;20463;-70
2024/04/15 06:57:21;;;;;;;4.80;3.63;;;16.50;82.20;;;;;;5492075;26;20462;-70
2024/04/15 06:59:48;;;;;;;7.30;4.20;;;16.60;82.60;;;;;;5491673;26;20443;-70
2024/04/15 07:02:21;;;;;;;5.80;4.13;;;16.60;82.90;;;;;;5491590;26;20454;-70
2024/04/15 07:04:50;;;;;;;4.90;3.53;;;16.70;84.70;;;;;;5491291;26;20832;-70
2024/04/15 07:07:18;;;;;;;12.03;5.17;;;16.80;83.50;;;;;;5491575;26;20573;-70
2024/04/15 07:09:47;;;;;;;8.60;4.63;;;16.90;82.80;;;;;;5491846;26;20496;-70
2024/04/15 07:12:16;;;;;;;8.23;4.67;;;16.80;82.80;;;;;;5490781;26;20451;-70
2024/04/15 07:14:42;;;;;;;8.43;4.80;;;16.90;82.80;;;;;;5491801;26;20582;-70
2024/04/15 07:17:11;;;;;;;5.97;4.20;;;17.00;82.60;;;;;;5491742;26;20510;-70
2024/04/15 07:19:37;;;;;;;6.70;3.77;;;17.10;82.20;;;;;;5491498;26;20499;-70
2024/04/15 07:22:06;;;;;;;6.93;4.23;;;17.10;82.20;;;;;;5491325;26;20508;-70
2024/04/15 07:24:33;;;;;;;5.47;3.50;;;17.10;82.50;;;;;;5491372;26;20505;-70
2024/04/15 07:27:05;;;;;;;4.90;4.00;;;17.00;81.90;;;;;;5491196;26;20451;-70
2024/04/15 07:29:36;;;;;;;8.83;3.60;;;17.00;82.80;;;;;;5491395;26;20504;-70
2024/04/15 07:32:06;;;;;;;5.57;4.27;;;17.10;83.80;;;;;;5491159;26;20456;-70
2024/04/15 07:34:32;;;;;;;7.13;4.10;;;17.10;83.90;;;;;;5491688;26;20493;-70
2024/04/15 07:37:01;;;;;;;6.20;3.73;;;17.10;84.30;;;;;;5491620;26;20527;-70
2024/04/15 07:39:27;;;;;;;6.70;5.07;;;17.20;84.40;;;;;;5491112;26;20493;-70
2024/04/15 07:41:56;;;;;;;7.20;3.80;;;17.20;84.10;;;;;;5491234;26;20464;-70
2024/04/15 07:44:24;;;;;;;6.70;4.90;;;17.20;84.90;;;;;;5491645;26;20446;-72
2024/04/15 07:46:53;;;;;;;6.07;4.73;;;17.20;83.90;;;;;;5491658;26;20452;-72
2024/04/15 07:49:19;;;;;;;6.10;4.60;;;17.20;84.80;;;;;;5491146;26;20966;-72
2024/04/15 07:51:48;;;;;;;5.63;4.43;;;17.20;84.70;;;;;;5491087;26;20496;-72
2024/04/15 07:54:14;;;;;;;8.90;4.60;;;17.20;85.30;;;;;;5491306;26;20633;-72
2024/04/15 07:56:43;;;;;;;5.37;4.40;;;17.10;86.20;;;;;;5491580;26;20450;-72
2024/04/15 07:59:10;;;;;;;6.80;4.20;;;17.10;85.80;;;;;;5490972;26;20448;-72
2024/04/15 08:01:42;;;;;;;5.50;3.80;;;17.10;86.50;;;;;;5490770;26;20852;-72
2024/04/15 08:04:10;;;;;;;6.23;4.50;;;17.10;87.10;;;;;;5490784;26;20650;-70
2024/04/15 08:06:42;;;;;;;7.17;4.90;;;17.10;86.40;;;;;;5490418;26;20477;-70
2024/04/15 08:09:08;;;;;;;7.03;4.57;;;17.10;87.60;;;;;;5491012;26;20465;-71
2024/04/15 08:11:41;;;;;;;6.07;5.47;;;17.10;86.80;;;;;;5491222;26;20505;-70
2024/04/15 08:14:07;;;;;;;6.80;5.07;;;17.10;87.60;;;;;;5490978;26;20750;-70
2024/04/15 08:16:36;;;;;;;8.13;5.10;;;17.10;88.20;;;;;;5491131;26;20527;-70
2024/04/15 08:19:05;;;;;;;8.23;5.30;;;17.10;88.60;;;;;;5490682;26;20512;-70
2024/04/15 08:21:34;;;;;;;8.93;5.23;;;17.20;90.00;;;;;;5490545;26;20792;-70
2024/04/15 08:24:03;;;;;;;7.50;5.70;;;17.20;90.80;;;;;;5489165;26;20449;-70
2024/04/15 08:26:31;;;;;;;6.77;4.90;;;17.30;90.40;;;;;;5490461;26;20542;-70
2024/04/15 08:29:03;;;;;;;5.23;4.27;;;17.30;90.30;;;;;;5491021;26;20457;-70
2024/04/15 08:31:32;;;;;;;5.90;4.27;;;17.30;89.60;;;;;;5490733;26;20448;-70
2024/04/15 08:34:07;;;;;;;5.23;3.90;;;17.40;90.00;;;;;;5487913;26;20509;-70
2024/04/15 08:36:37;;;;;;;7.77;4.70;;;17.50;91.30;;;;;;5489717;26;20457;-70
2024/04/15 08:39:03;;;;;;;9.37;4.93;;;17.50;91.00;;;;;;5490000;26;21038;-70
2024/04/15 08:41:38;;;;;;;6.17;4.23;;;17.60;91.20;;;;;;5489789;26;20986;-70
2024/04/15 08:44:05;;;;;;;6.37;4.60;;;17.70;90.40;;;;;;5490152;26;20510;-71
2024/04/15 08:46:40;;;;;;;6.40;4.00;;;17.80;89.90;;;;;;5489742;26;21022;-71
2024/04/15 08:49:09;;;;;;;6.30;3.97;;;17.80;90.00;;;;;;5489784;26;20657;-71
2024/04/15 08:51:38;;;;;;;7.43;4.50;;;17.80;90.00;;;;;;5489667;26;20890;-71
2024/04/15 08:54:05;;;;;;;6.60;4.50;;;17.80;89.90;;;;;;5489628;26;20834;-70
2024/04/15 08:56:39;;;;;;;8.77;6.53;;;17.70;90.70;;;;;;5489647;26;20517;-71
2024/04/15 08:59:07;;;;;;;9.33;5.80;;;17.80;92.10;;;;;;5489783;26;20456;-71
2024/04/15 09:01:37;;;;;;;10.80;6.57;;;18.00;92.10;;;;;;5489787;26;20463;-71
2024/04/15 09:04:04;;;;;;;7.83;5.63;;;18.00;90.60;;;;;;5490072;26;20462;-71
2024/04/15 09:06:35;;;;;;;6.87;5.47;;;18.10;90.30;;;;;;5489118;26;20470;-71
2024/04/15 09:09:02;;;;;;;7.50;5.50;;;18.10;89.20;;;;;;5489031;26;20571;-71
2024/04/15 09:11:36;;;;;;;7.37;4.33;;;18.10;86.50;;;;;;5489477;26;20501;-71
2024/04/15 09:14:03;;;;;;;8.70;4.10;;;18.00;85.20;;;;;;5489857;26;20463;-70
2024/04/15 09:16:31;;;;;;;7.80;4.90;;;17.90;86.60;;;;;;5489002;26;20894;-70
2024/04/15 09:18:58;;;;;;;7.70;4.43;;;17.90;88.00;;;;;;5489460;26;20447;-71
2024/04/15 09:21:29;;;;;;;6.47;4.70;;;17.90;88.70;;;;;;5489211;26;21007;-71
2024/04/15 09:23:58;;;;;;;8.47;6.27;;;17.90;89.20;;;;;;5489639;26;20511;-71
2024/04/15 09:26:26;;;;;;;8.70;5.40;;;17.90;90.50;;;;;;5489509;26;20498;-70
2024/04/15 09:28:52;;;;;;;4.80;3.30;;;17.90;91.30;;;;;;5489520;26;20503;-71
2024/04/15 09:31:21;;;;;;;9.47;4.20;;;17.90;89.00;;;;;;5489551;26;20785;-71
2024/04/15 09:33:48;;;;;;;5.87;3.33;;;17.90;88.80;;;;;;5489498;26;20458;-71
2024/04/15 09:36:18;;;;;;;4.70;2.93;;;17.90;90.30;;;;;;5489077;26;20446;-70
2024/04/15 09:38:45;;;;;;;3.87;2.30;;;17.90;86.10;;;;;;5489616;26;21031;-70
2024/04/15 09:41:16;;;;;;;5.20;2.80;;;17.80;86.50;;;;;;5489474;26;20840;-70
2024/04/15 09:43:48;;;;;;;4.90;2.37;;;17.80;87.90;;;;;;5489569;26;20510;-70
2024/04/15 09:46:17;;;;;;;5.60;2.40;;;17.80;88.00;;;;;;5489555;26;20491;-70
2024/04/15 09:48:48;;;;;;;5.20;2.27;;;17.80;84.50;;;;;;5489390;26;20447;-70
2024/04/15 09:51:24;;;;;;;8.10;2.33;;;17.80;84.80;;;;;;5489188;26;20461;-70
2024/04/15 09:53:52;;;;;;;4.93;2.53;;;17.80;83.70;;;;;;5489210;26;20462;-71
2024/04/15 09:56:27;;;;;;;4.03;2.40;;;17.80;83.20;;;;;;5489123;26;20854;-70
2024/04/15 09:59:01;;;;;;;5.07;2.57;;;17.70;83.00;;;;;;5489095;26;20987;-71
2024/04/15 10:01:32;;;;;;;6.17;2.93;;;17.70;83.90;;;;;;5489519;26;20452;-70
2024/04/15 10:04:01;;;;;;;4.00;1.93;;;17.70;86.10;;;;;;5489193;26;20510;-70
2024/04/15 10:06:36;;;;;;;6.93;2.40;;;17.70;85.80;;;;;;5488795;26;20522;-70
2024/04/15 10:09:03;;;;;;;4.43;2.80;;;17.70;86.50;;;;;;5489505;26;20509;-70
2024/04/15 10:11:35;;;;;;;6.03;2.70;;;17.70;85.80;;;;;;5489349;26;20506;-70
2024/04/15 10:14:02;;;;;;;4.40;2.27;;;17.70;85.80;;;;;;5489235;26;20510;-70
2024/04/15 10:16:30;;;;;;;4.40;2.77;;;17.70;84.70;;;;;;5488925;26;20504;-70
2024/04/15 10:18:59;;;;;;;2.90;2.00;;;17.70;85.20;;;;;;5488715;26;20772;-70
2024/04/15 10:21:28;;;;;;;4.13;2.37;;;17.70;84.20;;;;;;5489269;26;20566;-70
2024/04/15 10:23:55;;;;;;;3.10;1.60;;;17.60;84.90;;;;;;5488879;26;20454;-70
2024/04/15 10:26:25;;;;;;;3.00;2.10;;;17.60;83.80;;;;;;5488940;26;20572;-70
2024/04/15 10:29:10;;;;;;;4.50;1.70;;;17.60;82.80;;;;;;5487363;26;20955;-70
2024/04/15 10:31:42;;;;;;;2.97;1.73;;;17.60;84.60;;;;;;5488766;26;20457;-70
2024/04/15 10:34:13;;;;;;;3.80;1.70;;;17.60;84.50;;;;;;5488642;26;20501;-70
2024/04/15 10:36:43;;;;;;;2.90;1.40;;;17.60;82.00;;;;;;5488671;26;20446;-71
2024/04/15 10:39:15;;;;;;;2.83;1.57;;;17.60;82.50;;;;;;5488652;26;20505;-70
2024/04/15 10:41:45;;;;;;;4.37;1.47;;;17.50;82.90;;;;;;5488596;26;20505;-70
2024/04/15 10:44:14;;;;;;;2.83;1.73;;;17.50;83.70;;;;;;5488611;26;20519;-71
2024/04/15 10:46:45;;;;;;;3.03;1.63;;;17.50;83.80;;;;;;5489165;26;20872;-71
2024/04/15 10:49:11;;;;;;;3.60;2.13;;;17.60;83.90;;;;;;5492783;26;20978;-72
2024/04/15 10:51:40;;;;;;;2.50;1.27;;;17.60;84.30;;;;;;5492132;26;20438;-73
2024/04/15 10:54:06;;;;;;;3.90;1.97;;;17.60;84.10;;;;;;5491999;26;20448;-70
2024/04/15 10:56:35;;;;;;;5.10;2.00;;;17.60;85.80;;;;;;5492090;26;20999;-71
2024/04/15 10:59:03;;;;;;;4.17;2.50;;;17.70;86.40;;;;;;5491783;26;20505;-72
2024/04/15 11:01:40;;;;;;;4.03;2.23;;;17.70;85.80;;;;;;5492250;26;20508;-72
2024/04/15 11:04:11;;;;;;;3.23;1.77;;;17.70;86.60;;;;;;5494044;26;20461;-72
2024/04/15 11:06:54;;;;;;;2.73;1.63;;;17.80;86.40;;;;;;5492355;26;20991;-72
2024/04/15 11:09:22;;;;;;;3.30;1.83;;;17.80;87.30;;;;;;5492990;26;20450;-72
2024/04/15 11:11:51;;;;;;;4.10;1.50;;;17.80;87.20;;;;;;5491519;26;20466;-72
2024/04/15 11:14:19;;;;;;;3.07;1.80;;;17.80;88.50;;;;;;5491236;26;20533;-72
2024/04/15 11:16:50;;;;;;;5.83;2.80;;;17.90;87.90;;;;;;5490961;26;20513;-72
2024/04/15 11:19:18;;;;;;;5.43;1.83;;;17.90;87.90;;;;;;5491389;26;20465;-72
2024/04/15 11:21:46;;;;;;;6.20;2.40;;;18.00;88.50;;;;;;5487750;26;21930;-72
2024/04/15 11:24:18;;;;;;;3.10;1.77;;;18.00;87.60;;;;;;5490208;26;20521;-72
2024/04/15 11:26:52;;;;;;;2.80;1.50;;;17.90;86.40;;;;;;5490888;26;20515;-72
2024/04/15 11:29:19;;;;;;;4.60;2.10;;;18.00;88.00;;;;;;5486616;26;20474;-72
2024/04/15 11:31:51;;;;;;;4.40;1.80;;;18.00;88.60;;;;;;5454673;26;20468;-72
2024/04/15 11:34:19;;;;;;;3.20;1.70;;;18.00;89.40;;;;;;5486614;26;21156;-72
2024/04/15 11:36:47;;;;;;;3.10;1.70;;;18.00;90.50;;;;;;5472686;26;20509;-72
2024/04/15 11:39:16;;;;;;;3.57;2.17;;;18.00;90.20;;;;;;5491102;26;20561;-72
2024/04/15 11:41:43;;;;;;;4.23;2.17;;;18.10;90.00;;;;;;5491036;26;20454;-72
2024/04/15 11:44:12;;;;;;;2.83;1.53;;;18.10;89.70;;;;;;5490318;26;20518;-72
2024/04/15 11:46:39;;;;;;;2.90;1.63;;;18.20;88.90;;;;;;5490759;26;20611;-72
2024/04/15 11:49:11;;;;;;;4.13;1.80;;;18.30;88.90;;;;;;5491210;26;20968;-72
2024/04/15 11:51:42;;;;;;;5.00;2.63;;;18.40;89.60;;;;;;5490469;26;20473;-72
2024/04/15 11:54:11;;;;;;;2.70;1.53;;;18.60;91.70;;;;;;5489753;26;20523;-72
2024/04/15 11:56:38;;;;;;;2.67;1.73;;;18.80;85.50;;;;;;5489684;26;20515;-72
2024/04/15 11:59:07;;;;;;;2.90;1.60;;;18.80;82.70;;;;;;5490126;26;20467;-73
2024/04/15 12:01:34;;;;;;;4.37;1.63;;;18.90;85.40;;;;;;5490366;26;20459;-72
2024/04/15 12:04:03;;;;;;;3.77;1.67;;;19.10;79.70;;;;;;5490695;26;20596;-72
2024/04/15 12:06:35;;;;;;;4.07;2.30;;;19.10;80.60;;;;;;5488073;26;20463;-72
2024/04/15 12:09:04;;;;;;;3.20;1.97;;;19.20;79.60;;;;;;5490674;26;21052;-72
2024/04/15 12:11:30;;;;;;;3.97;1.67;;;19.20;80.90;;;;;;5490411;26;20463;-72
2024/04/15 12:13:59;;;;;;;2.73;1.50;;;19.20;80.30;;;;;;5490217;26;20580;-73
2024/04/15 12:16:27;;;;;;;3.20;1.70;;;19.30;78.60;;;;;;5461903;26;20632;-72
2024/04/15 12:18:57;;;;;;;5.37;1.50;;;19.50;81.60;;;;;;5471074;26;20470;-72
2024/04/15 12:21:24;;;;;;;3.50;1.63;;;19.60;83.40;;;;;;5473217;26;20453;-70
2024/04/15 12:23:55;;;;;;;2.63;1.63;;;19.80;82.40;;;;;;5480713;26;20545;-72
2024/04/15 12:26:23;;;;;;;3.30;1.90;;;20.00;78.20;;;;;;5490356;26;20503;-72
2024/04/15 12:28:53;;;;;;;2.43;1.33;;;20.10;77.90;;;;;;5490074;26;20467;-72
2024/04/15 12:31:24;;;;;;;3.47;1.70;;;20.10;75.60;;;;;;5490021;26;20569;-70
2024/04/15 12:33:55;;;;;;;3.40;1.70;;;20.00;73.30;;;;;;5486167;26;20556;-70
2024/04/15 12:36:22;;;;;;;2.90;1.50;;;20.00;74.60;;;;;;5488669;26;20459;-70
2024/04/15 12:38:51;;;;;;;2.43;1.13;;;19.90;76.20;;;;;;5489943;26;20796;-70
2024/04/15 12:41:19;;;;;;;4.30;1.50;;;20.00;75.00;;;;;;5490141;26;20448;-70
2024/04/15 12:43:48;;;;;;;3.33;1.50;;;20.00;72.90;;;;;;5490081;26;20499;-70
2024/04/15 12:46:16;;;;;;;3.07;1.63;;;20.10;75.10;;;;;;5489283;26;20451;-70
2024/04/15 12:48:48;;;;;;;4.47;1.53;;;20.20;78.30;;;;;;5489346;26;20520;-70
2024/04/15 12:51:17;;;;;;;2.73;1.37;;;20.40;72.50;;;;;;5490182;26;20459;-70
2024/04/15 12:53:45;;;;;;;3.23;1.50;;;20.70;69.90;;;;;;5489826;26;20541;-70
2024/04/15 12:56:19;;;;;;;3.47;1.73;;;20.80;68.60;;;;;;5490336;26;20447;-70